Time;durP1;ratioP1;P1;durP2;ratioP2;P2;SDS_P1;SDS_P2;PMS_P1;PMS_P2;Temp;Humidity;BMP_temperature;BMP_pressure;BME280_temperature;BME280_humidity;BME280_pressure;Samples;Min_cycle;Max_cycle;Signal;HPM_P1;HPM_P2
2023/10/30 00:00:30;;;;;;;1.60;1.20;;;16.90;99.90;;;;;;5022291;28;20271;-88
2023/10/30 00:02:56;;;;;;;2.37;1.03;;;16.90;99.90;;;;;;5033792;28;20218;-88
2023/10/30 00:05:21;;;;;;;2.13;1.30;;;16.90;99.90;;;;;;5008241;28;20180;-88
2023/10/30 00:07:47;;;;;;;3.33;1.23;;;16.90;99.90;;;;;;5013539;28;20210;-89
2023/10/30 00:10:13;;;;;;;1.30;1.00;;;16.90;99.90;;;;;;5010052;28;20249;-88
2023/10/30 00:12:38;;;;;;;3.90;1.20;;;16.90;99.90;;;;;;5011626;28;20177;-88
2023/10/30 00:15:04;;;;;;;1.40;1.00;;;16.90;99.90;;;;;;5016734;28;20538;-88
2023/10/30 00:17:30;;;;;;;2.30;1.00;;;16.90;99.90;;;;;;5007333;28;20471;-88
2023/10/30 00:19:56;;;;;;;1.60;1.20;;;16.90;99.90;;;;;;4999255;28;20445;-88
2023/10/30 00:22:22;;;;;;;1.47;1.00;;;16.90;99.90;;;;;;4997123;28;20189;-88
2023/10/30 00:24:48;;;;;;;2.53;1.13;;;16.90;99.90;;;;;;5015078;28;20211;-89
2023/10/30 00:27:16;;;;;;;1.90;1.03;;;16.90;99.90;;;;;;5007209;28;20244;-89
2023/10/30 00:29:42;;;;;;;1.87;1.33;;;16.90;99.90;;;;;;5014734;28;20161;-88
2023/10/30 00:32:08;;;;;;;1.97;1.17;;;16.90;99.90;;;;;;5004062;28;20177;-88
2023/10/30 00:34:39;;;;;;;1.67;1.00;;;16.90;99.90;;;;;;5016365;28;20205;-88
2023/10/30 00:37:04;;;;;;;1.93;0.93;;;16.90;99.90;;;;;;5014201;28;20573;-88
2023/10/30 00:39:32;;;;;;;2.50;1.20;;;16.90;99.90;;;;;;5019771;28;20183;-88
2023/10/30 00:42:02;;;;;;;2.67;1.10;;;16.90;99.90;;;;;;5014996;28;20181;-87
2023/10/30 00:44:27;;;;;;;1.93;1.07;;;16.90;99.90;;;;;;5021299;28;20192;-88
2023/10/30 00:46:53;;;;;;;1.90;1.07;;;16.90;99.90;;;;;;5016057;28;20475;-88
2023/10/30 00:49:20;;;;;;;1.30;1.00;;;16.90;99.90;;;;;;5021574;28;20268;-88
2023/10/30 00:51:46;;;;;;;1.30;1.03;;;16.90;99.90;;;;;;5013318;28;20511;-87
2023/10/30 00:54:11;;;;;;;1.87;1.07;;;16.90;99.90;;;;;;5018010;28;20179;-88
2023/10/30 00:56:37;;;;;;;1.67;1.03;;;16.90;99.90;;;;;;5016660;28;20181;-87
2023/10/30 00:59:03;;;;;;;2.17;1.10;;;16.90;99.90;;;;;;5031118;28;20281;-88
2023/10/30 01:01:29;;;;;;;1.67;1.10;;;16.90;99.90;;;;;;5017859;28;20222;-88
2023/10/30 01:03:55;;;;;;;1.83;1.00;;;16.90;99.90;;;;;;5011390;28;20177;-88
2023/10/30 01:06:20;;;;;;;1.57;1.10;;;16.90;99.90;;;;;;5020077;28;20185;-88
2023/10/30 01:08:46;;;;;;;1.77;1.00;;;16.90;99.90;;;;;;5002952;28;20355;-89
2023/10/30 01:11:11;;;;;;;1.93;1.10;;;16.90;99.90;;;;;;5003241;28;20185;-88
2023/10/30 01:13:37;;;;;;;2.03;0.97;;;16.90;99.90;;;;;;5016233;28;20630;-88
2023/10/30 01:16:05;;;;;;;2.17;1.23;;;16.90;99.90;;;;;;5020486;28;20219;-88
2023/10/30 01:18:31;;;;;;;1.33;0.90;;;16.90;99.90;;;;;;5029787;28;20181;-88
2023/10/30 01:20:57;;;;;;;1.57;0.97;;;16.90;99.90;;;;;;5000945;28;20181;-88
2023/10/30 01:23:22;;;;;;;1.23;0.90;;;16.90;99.90;;;;;;5001425;28;20185;-88
2023/10/30 01:25:49;;;;;;;1.63;1.00;;;16.80;99.90;;;;;;5020176;28;20246;-88
2023/10/30 01:28:15;;;;;;;1.20;0.93;;;16.80;99.90;;;;;;5008565;28;20205;-88
2023/10/30 01:30:41;;;;;;;1.23;0.90;;;16.80;99.90;;;;;;5018406;28;20457;-88
2023/10/30 01:33:07;;;;;;;1.17;0.93;;;16.90;99.90;;;;;;5010202;28;20185;-88
2023/10/30 01:35:32;;;;;;;1.40;0.90;;;16.80;99.90;;;;;;5016288;28;20192;-89
2023/10/30 01:37:58;;;;;;;2.00;1.00;;;16.80;99.90;;;;;;5032697;28;20182;-88
2023/10/30 01:40:23;;;;;;;3.10;0.90;;;16.90;99.90;;;;;;5011458;28;20551;-89
2023/10/30 01:42:49;;;;;;;3.77;0.90;;;16.80;99.90;;;;;;5017339;28;20182;-88
2023/10/30 01:45:15;;;;;;;1.00;0.90;;;16.90;99.90;;;;;;5000253;28;20558;-88
2023/10/30 01:47:42;;;;;;;1.30;0.90;;;16.90;99.90;;;;;;5000944;28;20230;-88
2023/10/30 01:50:09;;;;;;;2.80;1.07;;;16.80;99.90;;;;;;5008139;28;20177;-88
2023/10/30 01:52:36;;;;;;;1.00;0.90;;;16.80;99.90;;;;;;5018709;28;20254;-88
2023/10/30 01:55:03;;;;;;;1.93;1.10;;;16.80;99.90;;;;;;5026772;28;20168;-88
2023/10/30 01:57:29;;;;;;;1.33;0.83;;;16.80;99.90;;;;;;5020774;28;20267;-88
2023/10/30 01:59:56;;;;;;;1.60;0.90;;;16.80;99.90;;;;;;5015082;28;20176;-88
2023/10/30 02:02:23;;;;;;;1.77;0.90;;;16.80;99.90;;;;;;5017211;28;20172;-88
2023/10/30 02:04:49;;;;;;;1.40;0.90;;;16.80;99.90;;;;;;5014559;28;20287;-88
2023/10/30 02:07:15;;;;;;;1.57;0.97;;;16.80;99.90;;;;;;4995779;28;20201;-88
2023/10/30 02:09:41;;;;;;;1.10;0.97;;;16.80;99.90;;;;;;5006371;28;20200;-88
2023/10/30 02:12:08;;;;;;;2.07;0.87;;;16.80;99.90;;;;;;4998424;28;20189;-88
2023/10/30 02:14:34;;;;;;;2.13;1.03;;;16.80;99.90;;;;;;5006922;28;20191;-88
2023/10/30 02:17:00;;;;;;;1.30;0.90;;;16.80;99.90;;;;;;5000926;28;20185;-87
2023/10/30 02:19:27;;;;;;;1.57;0.90;;;16.80;99.90;;;;;;5001893;28;20170;-88
2023/10/30 02:21:54;;;;;;;1.13;0.80;;;16.80;99.90;;;;;;5010868;28;20173;-88
2023/10/30 02:24:21;;;;;;;1.73;0.90;;;16.80;99.90;;;;;;5014467;28;20181;-88
2023/10/30 02:26:50;;;;;;;1.90;1.03;;;16.80;99.90;;;;;;5009777;28;20200;-88
2023/10/30 02:29:16;;;;;;;1.60;0.87;;;16.80;99.90;;;;;;5017135;28;20169;-88
2023/10/30 02:31:43;;;;;;;1.97;0.90;;;16.80;99.90;;;;;;5008690;28;20182;-87
2023/10/30 02:34:11;;;;;;;1.50;0.80;;;16.80;99.90;;;;;;5016216;28;20174;-88
2023/10/30 02:36:37;;;;;;;1.93;1.00;;;16.80;99.90;;;;;;5007863;28;20183;-88
2023/10/30 02:39:03;;;;;;;1.00;0.73;;;16.80;99.90;;;;;;5018234;28;20173;-88
2023/10/30 02:41:31;;;;;;;1.97;1.00;;;16.80;99.90;;;;;;5005585;28;20183;-88
2023/10/30 02:43:57;;;;;;;1.43;0.83;;;16.80;99.90;;;;;;5017566;28;20578;-89
2023/10/30 02:46:23;;;;;;;1.40;0.90;;;16.80;99.90;;;;;;5014999;28;20179;-89
2023/10/30 02:48:50;;;;;;;1.40;1.00;;;16.80;99.90;;;;;;5000958;28;20177;-89
2023/10/30 02:51:16;;;;;;;1.50;1.00;;;16.80;99.90;;;;;;5001450;28;20189;-89
2023/10/30 02:53:42;;;;;;;1.30;1.00;;;16.80;99.90;;;;;;5019914;28;20172;-89
2023/10/30 02:56:08;;;;;;;2.17;0.97;;;16.80;99.90;;;;;;5009628;28;20176;-89
2023/10/30 02:58:34;;;;;;;1.03;0.70;;;16.80;99.90;;;;;;5016139;28;20475;-89
2023/10/30 03:00:59;;;;;;;1.07;0.80;;;16.80;99.90;;;;;;5022752;28;20628;-89
2023/10/30 03:03:26;;;;;;;3.70;0.90;;;16.80;99.90;;;;;;5021601;28;20180;-89
2023/10/30 03:05:52;;;;;;;1.23;1.00;;;16.80;99.90;;;;;;5000142;28;20272;-89
2023/10/30 03:08:17;;;;;;;1.70;0.90;;;16.80;99.90;;;;;;5010931;28;20619;-89
2023/10/30 03:10:43;;;;;;;1.90;0.87;;;16.80;99.90;;;;;;5016042;28;20658;-89
2023/10/30 03:13:09;;;;;;;1.37;1.00;;;16.80;99.90;;;;;;5008466;28;20179;-87
2023/10/30 03:15:35;;;;;;;0.97;0.73;;;16.80;99.90;;;;;;5025688;28;20197;-86
2023/10/30 03:18:01;;;;;;;2.37;1.10;;;16.80;99.90;;;;;;5008342;28;20181;-86
2023/10/30 03:20:27;;;;;;;1.77;1.17;;;16.80;99.90;;;;;;5018774;28;20173;-86
2023/10/30 03:22:53;;;;;;;1.37;0.80;;;16.80;99.90;;;;;;5007766;28;20175;-86
2023/10/30 03:25:19;;;;;;;1.37;0.83;;;16.80;99.90;;;;;;5018888;28;20283;-86
2023/10/30 03:27:44;;;;;;;1.33;0.90;;;16.80;99.90;;;;;;5012102;28;20246;-86
2023/10/30 03:30:10;;;;;;;1.20;0.90;;;16.80;99.90;;;;;;4997529;28;20499;-86
2023/10/30 03:32:36;;;;;;;1.03;0.87;;;16.80;99.90;;;;;;5009516;28;20454;-86
2023/10/30 03:35:02;;;;;;;1.00;0.90;;;16.80;99.90;;;;;;5015464;28;20197;-86
2023/10/30 03:37:28;;;;;;;2.03;0.90;;;16.80;99.90;;;;;;4999356;28;20177;-86
2023/10/30 03:39:54;;;;;;;1.40;1.00;;;16.80;99.90;;;;;;5033211;28;20180;-87
2023/10/30 03:42:19;;;;;;;1.60;0.80;;;16.80;99.90;;;;;;5008660;28;20307;-86
2023/10/30 03:44:45;;;;;;;2.77;1.30;;;16.80;99.90;;;;;;5013383;28;20189;-86
2023/10/30 03:47:11;;;;;;;1.10;0.83;;;16.70;99.90;;;;;;5014389;28;20454;-86
2023/10/30 03:49:36;;;;;;;1.73;0.83;;;16.80;99.90;;;;;;5011563;28;20272;-86
2023/10/30 03:52:02;;;;;;;1.40;0.80;;;16.70;99.90;;;;;;5016221;28;20219;-86
2023/10/30 03:54:28;;;;;;;0.70;0.70;;;16.80;99.90;;;;;;5007747;28;20279;-86
2023/10/30 03:56:53;;;;;;;1.93;0.90;;;16.70;99.90;;;;;;5016796;28;20189;-86
2023/10/30 03:59:20;;;;;;;1.37;0.90;;;16.80;99.90;;;;;;5007173;28;20190;-86
2023/10/30 04:01:45;;;;;;;1.17;0.90;;;16.70;99.90;;;;;;5017987;28;20175;-87
2023/10/30 04:04:11;;;;;;;1.63;1.10;;;16.70;99.90;;;;;;5005791;28;20570;-86
2023/10/30 04:06:37;;;;;;;1.20;0.90;;;16.70;99.90;;;;;;5034934;28;20236;-86
2023/10/30 04:09:06;;;;;;;1.33;1.00;;;16.70;99.90;;;;;;5015387;28;20176;-86
2023/10/30 04:11:33;;;;;;;1.87;1.00;;;16.70;99.90;;;;;;4997274;28;20219;-86
2023/10/30 04:13:59;;;;;;;1.30;0.80;;;16.70;99.90;;;;;;5009419;28;20279;-86
2023/10/30 04:16:25;;;;;;;1.40;1.00;;;16.70;99.90;;;;;;5017694;28;20173;-86
2023/10/30 04:18:50;;;;;;;1.77;1.00;;;16.70;99.90;;;;;;5015152;28;20420;-86
2023/10/30 04:21:16;;;;;;;1.70;0.93;;;16.80;99.90;;;;;;5000359;28;20607;-86
2023/10/30 04:23:44;;;;;;;1.80;0.97;;;16.70;99.90;;;;;;5004029;28;20169;-86
2023/10/30 04:26:09;;;;;;;1.00;0.90;;;16.70;99.90;;;;;;5019147;28;20177;-86
2023/10/30 04:28:36;;;;;;;2.63;1.00;;;16.70;99.90;;;;;;5002115;28;20207;-86
2023/10/30 04:31:04;;;;;;;1.13;0.80;;;16.80;99.90;;;;;;5021131;28;20178;-86
2023/10/30 04:33:30;;;;;;;2.50;1.10;;;16.70;99.90;;;;;;4999664;28;20178;-86
2023/10/30 04:35:55;;;;;;;1.53;0.80;;;16.70;99.90;;;;;;5022457;28;20196;-87
2023/10/30 04:38:24;;;;;;;1.30;0.77;;;16.70;99.90;;;;;;5013756;28;20204;-86
2023/10/30 04:40:49;;;;;;;1.90;1.00;;;16.80;99.90;;;;;;5004078;28;20174;-86
2023/10/30 04:43:15;;;;;;;2.00;0.97;;;16.70;99.90;;;;;;5013010;28;20203;-86
2023/10/30 04:45:41;;;;;;;1.47;0.80;;;16.70;99.90;;;;;;5003951;28;20180;-86
2023/10/30 04:48:06;;;;;;;1.00;0.90;;;16.70;99.90;;;;;;5015467;28;20357;-86
2023/10/30 04:50:32;;;;;;;1.57;0.77;;;16.70;99.90;;;;;;5002507;28;20176;-87
2023/10/30 04:52:58;;;;;;;1.73;0.90;;;16.70;99.90;;;;;;5014394;28;20321;-87
2023/10/30 04:55:24;;;;;;;1.60;0.80;;;16.70;99.90;;;;;;5012360;28;20181;-87
2023/10/30 04:57:49;;;;;;;0.97;0.73;;;16.70;99.90;;;;;;4995693;28;20177;-87
2023/10/30 05:00:15;;;;;;;1.03;0.77;;;16.70;99.90;;;;;;5003947;28;20456;-88
2023/10/30 05:02:42;;;;;;;0.93;0.80;;;16.70;99.90;;;;;;5015257;28;20373;-88
2023/10/30 05:05:08;;;;;;;1.20;0.80;;;16.70;99.90;;;;;;5024755;28;20452;-88
2023/10/30 05:07:34;;;;;;;1.50;1.00;;;16.70;99.90;;;;;;5010783;28;20239;-89
2023/10/30 05:10:00;;;;;;;1.27;0.90;;;16.70;99.90;;;;;;5009359;28;20271;-89
2023/10/30 05:12:25;;;;;;;2.23;1.40;;;16.70;99.90;;;;;;4994002;28;20336;-88
2023/10/30 05:14:51;;;;;;;1.57;0.97;;;16.70;99.90;;;;;;5014079;28;20170;-88
2023/10/30 05:17:18;;;;;;;1.73;0.97;;;16.70;99.90;;;;;;5003728;28;20435;-88
2023/10/30 05:19:43;;;;;;;2.43;0.90;;;16.70;99.90;;;;;;4980718;28;20584;-88
2023/10/30 05:22:09;;;;;;;2.60;1.00;;;16.70;99.90;;;;;;5019757;28;20613;-88
2023/10/30 05:24:35;;;;;;;1.93;0.73;;;16.70;99.90;;;;;;5015539;28;20188;-88
2023/10/30 05:27:01;;;;;;;1.40;0.80;;;16.70;99.90;;;;;;5001559;28;20429;-88
2023/10/30 05:29:26;;;;;;;1.13;0.90;;;16.70;99.90;;;;;;5016557;28;20272;-88
2023/10/30 05:31:52;;;;;;;1.53;1.00;;;16.70;99.90;;;;;;5003937;28;20176;-88
2023/10/30 05:34:18;;;;;;;2.00;0.90;;;16.70;99.90;;;;;;5015796;28;20185;-88
2023/10/30 05:36:44;;;;;;;1.00;0.90;;;16.70;99.90;;;;;;5022341;28;20181;-88
2023/10/30 05:39:10;;;;;;;0.77;0.70;;;16.70;99.90;;;;;;5017667;28;20184;-88
2023/10/30 05:41:35;;;;;;;1.13;0.80;;;16.70;99.90;;;;;;5005079;28;20173;-88
2023/10/30 05:44:01;;;;;;;2.07;0.80;;;16.70;99.90;;;;;;5012165;28;20181;-88
2023/10/30 05:46:27;;;;;;;2.10;1.00;;;16.70;99.90;;;;;;5008738;28;20429;-88
2023/10/30 05:48:52;;;;;;;2.17;0.90;;;16.70;99.90;;;;;;5010088;28;20177;-88
2023/10/30 05:51:18;;;;;;;0.97;0.70;;;16.70;99.90;;;;;;5010005;28;20184;-89
2023/10/30 05:53:44;;;;;;;1.37;0.90;;;16.70;99.90;;;;;;5004514;28;20178;-88
2023/10/30 05:56:11;;;;;;;2.13;0.80;;;16.70;99.90;;;;;;5012480;28;20200;-86
2023/10/30 05:58:36;;;;;;;0.80;0.73;;;16.70;99.90;;;;;;5021122;28;20173;-86
2023/10/30 06:01:02;;;;;;;1.60;0.90;;;16.70;99.90;;;;;;5028842;28;20184;-86
2023/10/30 06:03:28;;;;;;;1.27;0.80;;;16.70;99.90;;;;;;5004070;28;20587;-86
2023/10/30 06:05:55;;;;;;;1.07;0.93;;;16.70;99.90;;;;;;5013304;28;20274;-86
2023/10/30 06:08:23;;;;;;;1.40;0.90;;;16.70;99.90;;;;;;5017184;28;20196;-86
2023/10/30 06:10:50;;;;;;;1.40;1.00;;;16.70;99.90;;;;;;5012637;28;20587;-86
2023/10/30 06:13:16;;;;;;;1.33;0.80;;;16.70;99.90;;;;;;5005157;28;20235;-86
2023/10/30 06:15:41;;;;;;;1.30;0.83;;;16.70;99.90;;;;;;4991494;28;20197;-86
2023/10/30 06:18:08;;;;;;;1.27;0.83;;;16.70;99.90;;;;;;5020522;28;20253;-86
2023/10/30 06:20:33;;;;;;;0.87;0.63;;;16.70;99.90;;;;;;4993086;28;20185;-86
2023/10/30 06:22:59;;;;;;;1.13;0.70;;;16.70;99.90;;;;;;5003201;28;20177;-86
2023/10/30 06:25:25;;;;;;;1.80;0.97;;;16.70;99.90;;;;;;4993441;28;20181;-86
2023/10/30 06:27:52;;;;;;;1.60;1.17;;;16.60;99.90;;;;;;4997477;28;20499;-86
2023/10/30 06:30:17;;;;;;;1.13;0.80;;;16.70;99.90;;;;;;5005974;28;20165;-86
2023/10/30 06:32:44;;;;;;;1.33;1.00;;;16.70;99.90;;;;;;5023223;28;20491;-86
2023/10/30 06:35:10;;;;;;;2.17;0.90;;;16.70;99.90;;;;;;5018414;28;20184;-86
2023/10/30 06:37:36;;;;;;;1.93;1.00;;;16.70;99.90;;;;;;5008686;28;20230;-86
2023/10/30 06:40:05;;;;;;;1.60;0.87;;;16.70;99.90;;;;;;5010832;28;20482;-86
2023/10/30 06:42:31;;;;;;;1.47;0.90;;;16.70;99.90;;;;;;5011012;28;20166;-87
2023/10/30 06:44:57;;;;;;;1.67;0.87;;;16.70;99.90;;;;;;4999943;28;20169;-87
2023/10/30 06:47:22;;;;;;;1.87;0.93;;;16.70;99.90;;;;;;5011538;28;20374;-89
2023/10/30 06:49:48;;;;;;;2.13;1.03;;;16.70;99.90;;;;;;4998785;28;20451;-88
2023/10/30 06:52:13;;;;;;;2.63;1.03;;;16.70;99.90;;;;;;5027816;28;20255;-88
2023/10/30 06:54:39;;;;;;;3.90;1.23;;;16.70;99.90;;;;;;4998696;28;20312;-88
2023/10/30 06:57:05;;;;;;;3.00;1.20;;;16.70;99.90;;;;;;5009186;28;20497;-89
2023/10/30 06:59:31;;;;;;;2.53;1.10;;;16.70;99.90;;;;;;4997988;28;20531;-88
2023/10/30 07:01:57;;;;;;;3.57;1.03;;;16.70;99.90;;;;;;4989729;28;20449;-88
2023/10/30 07:04:24;;;;;;;2.97;0.90;;;16.70;99.90;;;;;;5001740;28;20246;-88
2023/10/30 07:06:50;;;;;;;3.20;1.13;;;16.70;99.90;;;;;;4994637;28;20577;-88
2023/10/30 07:09:17;;;;;;;3.50;1.10;;;16.70;99.90;;;;;;4999988;28;20178;-88
2023/10/30 07:11:43;;;;;;;2.00;1.20;;;16.70;99.90;;;;;;4996198;28;20176;-88
2023/10/30 07:14:09;;;;;;;3.03;1.10;;;16.70;99.90;;;;;;4995708;28;20195;-88
2023/10/30 07:16:35;;;;;;;3.10;1.40;;;16.80;99.90;;;;;;5022067;28;20264;-88
2023/10/30 07:19:02;;;;;;;3.23;1.30;;;16.70;99.90;;;;;;5024945;28;20169;-88
2023/10/30 07:21:28;;;;;;;2.60;1.20;;;16.80;99.90;;;;;;4998103;28;20181;-87
2023/10/30 07:23:55;;;;;;;2.10;0.90;;;16.80;99.90;;;;;;4989175;28;20250;-87
2023/10/30 07:26:21;;;;;;;5.03;1.40;;;16.70;99.90;;;;;;5016209;28;20424;-87
2023/10/30 07:28:48;;;;;;;2.63;1.20;;;16.70;99.90;;;;;;4990612;28;20216;-87
2023/10/30 07:31:14;;;;;;;2.50;1.13;;;16.70;99.90;;;;;;4998391;28;20233;-87
2023/10/30 07:33:40;;;;;;;2.13;1.20;;;16.70;99.90;;;;;;4987151;28;20405;-87
2023/10/30 07:36:06;;;;;;;5.33;1.30;;;16.70;99.90;;;;;;4996908;28;20656;-87
2023/10/30 07:38:32;;;;;;;2.53;1.20;;;16.80;99.90;;;;;;4988145;28;20246;-88
2023/10/30 07:40:58;;;;;;;1.50;1.20;;;16.80;99.90;;;;;;4997903;28;20574;-88
2023/10/30 07:43:24;;;;;;;2.50;1.30;;;16.80;99.90;;;;;;4983921;28;20191;-87
2023/10/30 07:45:50;;;;;;;2.03;1.10;;;16.80;99.90;;;;;;4991586;28;20174;-87
2023/10/30 07:48:17;;;;;;;3.13;1.67;;;16.80;99.90;;;;;;5000222;28;20262;-87
2023/10/30 07:50:45;;;;;;;2.30;1.40;;;16.80;99.90;;;;;;4993231;28;20590;-87
2023/10/30 07:53:11;;;;;;;1.83;1.10;;;16.90;99.90;;;;;;5021743;28;20482;-87
2023/10/30 07:55:38;;;;;;;2.13;1.30;;;16.90;99.90;;;;;;5001730;28;20671;-87
2023/10/30 07:58:08;;;;;;;3.00;1.40;;;16.90;99.90;;;;;;4988972;28;20177;-87
2023/10/30 08:00:34;;;;;;;3.07;1.47;;;16.90;99.90;;;;;;4992602;28;20177;-87
2023/10/30 08:03:00;;;;;;;3.00;1.63;;;16.90;99.90;;;;;;4996499;28;20172;-87
2023/10/30 08:05:30;;;;;;;3.03;1.20;;;17.00;99.90;;;;;;4989164;28;20228;-88
2023/10/30 08:07:56;;;;;;;3.67;1.13;;;16.90;99.90;;;;;;5016575;28;20228;-87
2023/10/30 08:10:22;;;;;;;3.03;1.20;;;17.00;99.90;;;;;;4991876;28;20480;-88
2023/10/30 08:12:47;;;;;;;2.50;1.10;;;16.90;99.90;;;;;;5000647;28;20271;-87
2023/10/30 08:15:13;;;;;;;5.03;1.30;;;17.00;99.90;;;;;;4990077;28;20173;-88
2023/10/30 08:17:39;;;;;;;1.93;1.30;;;17.00;99.90;;;;;;4997233;28;20200;-87
2023/10/30 08:20:05;;;;;;;3.00;1.47;;;17.00;99.90;;;;;;5008738;28;20173;-88
2023/10/30 08:22:32;;;;;;;3.23;1.40;;;17.10;99.90;;;;;;5008022;28;20505;-88
2023/10/30 08:24:59;;;;;;;1.83;1.20;;;17.10;99.90;;;;;;4991070;28;20173;-88
2023/10/30 08:27:24;;;;;;;2.10;1.30;;;17.20;99.90;;;;;;5001010;28;20196;-88
2023/10/30 08:29:51;;;;;;;2.30;1.30;;;17.20;99.90;;;;;;5005874;28;20185;-88
2023/10/30 08:32:17;;;;;;;4.93;1.43;;;17.20;99.90;;;;;;4995267;28;20169;-88
2023/10/30 08:34:42;;;;;;;2.63;1.47;;;17.30;99.90;;;;;;5024279;28;20216;-88
2023/10/30 08:37:08;;;;;;;5.03;1.50;;;17.30;99.90;;;;;;5001969;28;20454;-87
2023/10/30 08:39:34;;;;;;;3.30;1.37;;;17.30;99.90;;;;;;5021635;28;20165;-88
2023/10/30 08:42:00;;;;;;;2.03;1.20;;;17.40;99.90;;;;;;5004086;28;20176;-87
2023/10/30 08:44:25;;;;;;;2.87;1.13;;;17.40;99.90;;;;;;5003233;28;20349;-88
2023/10/30 08:46:51;;;;;;;3.57;1.40;;;17.40;99.90;;;;;;5006726;28;20189;-88
2023/10/30 08:49:17;;;;;;;2.90;1.50;;;17.40;99.90;;;;;;5019193;28;20445;-88
2023/10/30 08:51:43;;;;;;;2.60;1.20;;;17.50;99.90;;;;;;4992071;28;20543;-88
2023/10/30 08:54:09;;;;;;;4.83;1.43;;;17.50;99.90;;;;;;5017679;28;20177;-88
2023/10/30 08:56:36;;;;;;;2.00;1.30;;;17.50;99.90;;;;;;5008440;28;20327;-88
2023/10/30 08:59:03;;;;;;;3.30;1.23;;;17.50;99.90;;;;;;5003400;28;20173;-88
2023/10/30 09:01:31;;;;;;;3.67;1.40;;;17.50;99.90;;;;;;4989856;28;20467;-88
2023/10/30 09:03:57;;;;;;;4.90;1.40;;;17.60;99.90;;;;;;4995502;28;20586;-87
2023/10/30 09:06:22;;;;;;;2.67;1.20;;;17.60;99.90;;;;;;5027358;28;20161;-87
2023/10/30 09:08:48;;;;;;;2.87;1.30;;;17.60;99.90;;;;;;4998369;28;20209;-87
2023/10/30 09:11:14;;;;;;;3.23;1.40;;;17.60;99.90;;;;;;5012711;28;20209;-88
2023/10/30 09:13:39;;;;;;;2.77;1.40;;;17.60;99.90;;;;;;5001905;28;20276;-87
2023/10/30 09:16:05;;;;;;;3.20;1.40;;;17.60;99.90;;;;;;5008919;28;20311;-88
2023/10/30 09:18:31;;;;;;;3.97;1.50;;;17.60;99.90;;;;;;5005303;28;20326;-88
2023/10/30 09:20:57;;;;;;;3.17;1.43;;;17.60;99.90;;;;;;5009815;28;20491;-87
2023/10/30 09:23:23;;;;;;;2.00;1.30;;;17.60;99.90;;;;;;5007319;28;20409;-88
2023/10/30 09:25:49;;;;;;;3.83;1.37;;;17.60;99.90;;;;;;5003535;28;20173;-88
2023/10/30 09:28:14;;;;;;;2.40;1.20;;;17.60;99.90;;;;;;5008272;28;20341;-88
2023/10/30 09:30:41;;;;;;;2.97;1.30;;;17.60;99.90;;;;;;5000533;28;20698;-88
2023/10/30 09:33:07;;;;;;;1.93;1.30;;;17.60;99.90;;;;;;4995016;28;20181;-87
2023/10/30 09:35:37;;;;;;;2.83;1.40;;;17.60;99.90;;;;;;5002069;28;20246;-87
2023/10/30 09:38:03;;;;;;;3.20;1.70;;;17.60;99.90;;;;;;5010413;28;20176;-87
2023/10/30 09:40:31;;;;;;;2.27;1.30;;;17.60;99.90;;;;;;5020640;28;20198;-88
2023/10/30 09:42:58;;;;;;;2.93;1.00;;;17.60;99.90;;;;;;4989394;28;20185;-86
2023/10/30 09:45:25;;;;;;;1.43;1.20;;;17.60;99.90;;;;;;4998843;28;20667;-86
2023/10/30 09:47:54;;;;;;;2.53;1.50;;;17.70;99.90;;;;;;5012622;28;20204;-87
2023/10/30 09:50:21;;;;;;;3.47;1.40;;;17.70;99.90;;;;;;5000204;28;20173;-87
2023/10/30 09:52:48;;;;;;;2.57;1.47;;;17.70;99.90;;;;;;5011661;28;20187;-87
2023/10/30 09:55:23;;;;;;;3.47;1.30;;;17.70;99.90;;;;;;4998967;28;20177;-87
2023/10/30 09:57:51;;;;;;;3.97;1.33;;;17.60;99.90;;;;;;5026402;28;20176;-87
2023/10/30 10:00:17;;;;;;;3.27;1.30;;;17.70;99.90;;;;;;5026148;28;20202;-87
2023/10/30 10:02:44;;;;;;;3.37;1.30;;;17.70;99.90;;;;;;4993698;28;20390;-87
2023/10/30 10:05:11;;;;;;;3.13;1.30;;;17.70;99.90;;;;;;4993443;28;20556;-87
2023/10/30 10:07:37;;;;;;;2.47;1.43;;;17.70;99.90;;;;;;5004333;28;20513;-87
2023/10/30 10:10:05;;;;;;;2.03;1.20;;;17.70;99.90;;;;;;5021754;28;20170;-87
2023/10/30 10:12:36;;;;;;;2.40;1.40;;;17.70;99.90;;;;;;5002214;28;20173;-87
2023/10/30 10:15:08;;;;;;;1.97;1.40;;;17.70;99.90;;;;;;5004358;28;20357;-87
2023/10/30 10:17:45;;;;;;;4.03;1.40;;;17.70;99.90;;;;;;4997383;28;20217;-86
2023/10/30 10:20:11;;;;;;;3.00;1.50;;;17.70;99.90;;;;;;4991936;28;20372;-87
2023/10/30 10:22:38;;;;;;;2.70;1.20;;;17.70;99.90;;;;;;5007101;28;20266;-87
2023/10/30 10:25:07;;;;;;;2.93;1.43;;;17.80;99.90;;;;;;5024801;28;20511;-87
2023/10/30 10:27:33;;;;;;;2.93;1.40;;;17.70;99.90;;;;;;4998552;28;20340;-86
2023/10/30 10:29:59;;;;;;;2.77;1.30;;;17.80;99.90;;;;;;5009026;28;20245;-87
2023/10/30 10:32:26;;;;;;;4.77;1.57;;;17.80;99.90;;;;;;4998019;28;20433;-87
2023/10/30 10:35:02;;;;;;;1.33;1.10;;;17.80;99.90;;;;;;5026909;28;20188;-87
2023/10/30 10:37:29;;;;;;;3.03;1.30;;;17.80;99.90;;;;;;5003701;28;20180;-87
2023/10/30 10:39:55;;;;;;;3.87;1.30;;;17.80;99.90;;;;;;4990785;28;20177;-87
2023/10/30 10:42:23;;;;;;;4.93;1.17;;;17.90;99.90;;;;;;5005434;28;20174;-87
2023/10/30 10:44:51;;;;;;;2.97;1.10;;;17.90;99.90;;;;;;5008501;28;20209;-87
2023/10/30 10:47:17;;;;;;;3.73;1.20;;;17.90;99.90;;;;;;5001395;28;20441;-87
2023/10/30 10:49:43;;;;;;;3.17;1.30;;;18.00;99.90;;;;;;4987214;28;20272;-87
2023/10/30 10:52:12;;;;;;;3.17;1.20;;;18.00;99.90;;;;;;4999155;28;20562;-87
2023/10/30 10:54:53;;;;;;;5.57;1.30;;;18.00;99.90;;;;;;4987923;28;20348;-87
2023/10/30 10:57:21;;;;;;;1.77;1.00;;;17.90;99.90;;;;;;5000801;28;20231;-87
2023/10/30 10:59:55;;;;;;;3.17;1.40;;;18.00;99.90;;;;;;5010061;28;20177;-87
2023/10/30 11:02:30;;;;;;;3.50;1.30;;;18.00;99.90;;;;;;4999114;28;20187;-88
2023/10/30 11:04:57;;;;;;;2.73;1.30;;;17.90;99.90;;;;;;5008039;28;20231;-87
2023/10/30 11:07:45;;;;;;;3.30;1.10;;;17.90;99.90;;;;;;5007436;28;20208;-87
2023/10/30 11:10:20;;;;;;;3.20;1.30;;;17.90;99.90;;;;;;4990691;28;20186;-88
2023/10/30 11:13:13;;;;;;;2.00;1.10;;;17.90;99.90;;;;;;5001794;28;20180;-87
2023/10/30 11:15:47;;;;;;;1.37;1.17;;;17.90;99.90;;;;;;5008626;28;20440;-87
2023/10/30 11:18:18;;;;;;;2.60;1.20;;;17.90;99.90;;;;;;5003064;28;20356;-87
2023/10/30 11:20:45;;;;;;;2.00;1.13;;;17.90;99.90;;;;;;4991584;28;20263;-88
2023/10/30 11:23:12;;;;;;;1.83;1.10;;;18.00;99.90;;;;;;5001505;28;20516;-87
2023/10/30 11:25:42;;;;;;;2.10;1.10;;;18.00;99.90;;;;;;4989757;28;20190;-87
2023/10/30 11:28:08;;;;;;;2.83;1.30;;;18.00;99.90;;;;;;4997885;28;20215;-86
2023/10/30 11:30:44;;;;;;;3.73;1.13;;;18.00;99.90;;;;;;4992179;28;20173;-87
2023/10/30 11:33:24;;;;;;;2.80;1.20;;;18.00;99.90;;;;;;4996213;28;20184;-87
2023/10/30 11:36:22;;;;;;;2.70;1.10;;;18.00;99.90;;;;;;4990370;28;20414;-86
2023/10/30 11:38:54;;;;;;;1.50;1.10;;;18.00;99.90;;;;;;4953312;28;20193;-86
2023/10/30 11:41:20;;;;;;;2.40;1.00;;;18.10;99.90;;;;;;5005564;28;20182;-86
2023/10/30 11:43:46;;;;;;;1.10;1.00;;;18.10;99.90;;;;;;5015825;28;20211;-86
2023/10/30 11:46:20;;;;;;;1.40;1.10;;;18.10;99.90;;;;;;5023373;28;20448;-86
2023/10/30 11:48:48;;;;;;;1.50;1.10;;;18.00;99.90;;;;;;5014949;28;20196;-85
2023/10/30 11:51:14;;;;;;;2.37;0.90;;;18.10;99.90;;;;;;4993479;28;20292;-86
2023/10/30 11:53:45;;;;;;;2.20;1.00;;;18.10;99.90;;;;;;5009484;28;20399;-86
2023/10/30 11:56:13;;;;;;;3.47;1.00;;;18.10;99.90;;;;;;4991047;28;20295;-87
2023/10/30 11:58:40;;;;;;;1.23;0.90;;;18.10;99.90;;;;;;4991968;28;20173;-87
2023/10/30 12:01:08;;;;;;;2.17;1.07;;;18.10;99.90;;;;;;4995708;28;20559;-87
2023/10/30 12:03:34;;;;;;;1.10;1.00;;;18.10;99.90;;;;;;4990676;28;20181;-87
2023/10/30 12:06:00;;;;;;;1.10;0.90;;;18.10;99.90;;;;;;4997239;28;20185;-86
2023/10/30 12:08:26;;;;;;;1.27;0.80;;;18.10;99.90;;;;;;4992244;28;20351;-87
2023/10/30 12:10:51;;;;;;;0.87;0.83;;;18.10;99.90;;;;;;4997701;28;20585;-87
2023/10/30 12:13:18;;;;;;;1.40;0.90;;;18.10;99.90;;;;;;5014382;28;20604;-86
2023/10/30 12:15:44;;;;;;;1.97;1.00;;;18.10;99.90;;;;;;5003875;28;20174;-87
2023/10/30 12:18:10;;;;;;;1.03;0.83;;;18.10;99.90;;;;;;4988012;28;20181;-87
2023/10/30 12:20:35;;;;;;;1.80;1.30;;;18.10;99.90;;;;;;4998604;28;20180;-86
2023/10/30 12:23:01;;;;;;;1.57;1.00;;;18.10;99.90;;;;;;4986510;28;20178;-87
2023/10/30 12:25:27;;;;;;;2.20;1.07;;;18.10;99.90;;;;;;5015270;28;20428;-86
2023/10/30 12:28:03;;;;;;;1.20;1.00;;;18.10;99.90;;;;;;4985890;28;20264;-86
2023/10/30 12:30:36;;;;;;;2.07;1.00;;;18.10;99.90;;;;;;4994721;28;20180;-87
2023/10/30 12:33:02;;;;;;;2.13;1.40;;;18.10;99.90;;;;;;5002558;28;20354;-86
2023/10/30 12:35:28;;;;;;;1.27;0.90;;;18.10;99.90;;;;;;4995363;28;20192;-86
2023/10/30 12:37:54;;;;;;;2.07;1.23;;;18.10;99.90;;;;;;5003555;28;20361;-86
2023/10/30 12:40:19;;;;;;;1.33;0.90;;;18.10;99.90;;;;;;4998103;28;20174;-86
2023/10/30 12:42:49;;;;;;;1.30;1.00;;;18.10;99.90;;;;;;5000930;28;20374;-86
2023/10/30 12:45:19;;;;;;;1.67;1.03;;;18.10;99.90;;;;;;4999338;28;20177;-86